Time;durP1;ratioP1;P1;durP2;ratioP2;P2;SDS_P1;SDS_P2;PMS_P1;PMS_P2;Temp;Humidity;BMP_temperature;BMP_pressure;BME280_temperature;BME280_humidity;BME280_pressure;Samples;Min_cycle;Max_cycle;Signal;HPM_P1;HPM_P2
2022/07/16 00:04:56;;;;;;;2.83;1.50;;;;;;;19.66;36.33;100032.97;7712353;32;40688;-74
2022/07/16 00:09:13;;;;;;;2.70;1.48;;;;;;;19.55;36.41;100021.44;7739117;32;37935;-74
2022/07/16 00:13:29;;;;;;;3.00;1.60;;;;;;;19.45;36.44;100010.69;7739167;32;37709;-74
2022/07/16 00:17:46;;;;;;;7.55;1.85;;;;;;;19.32;37.10;100013.31;7721157;32;40591;-75
2022/07/16 00:22:02;;;;;;;3.97;1.87;;;;;;;19.44;36.85;100015.41;7712260;32;40230;-74
2022/07/16 00:26:19;;;;;;;3.00;1.80;;;;;;;19.42;36.64;100014.94;7720005;32;38223;-74
2022/07/16 00:30:35;;;;;;;3.08;1.52;;;;;;;19.41;36.74;100009.72;7738835;32;37021;-73
2022/07/16 00:34:51;;;;;;;4.28;1.98;;;;;;;19.38;36.75;100002.09;7738916;32;40170;-73
2022/07/16 00:39:09;;;;;;;4.93;1.70;;;;;;;19.42;36.73;100003.88;7712591;32;40802;-73
2022/07/16 00:43:25;;;;;;;6.37;1.83;;;;;;;19.36;36.92;100007.94;7711881;32;37981;-73
2022/07/16 00:47:41;;;;;;;2.72;1.65;;;;;;;19.40;36.89;100014.44;7728190;32;38153;-74
2022/07/16 00:51:57;;;;;;;4.45;1.80;;;;;;;19.28;37.20;100014.28;7738775;32;39367;-74
2022/07/16 00:56:15;;;;;;;4.95;1.70;;;;;;;19.41;37.00;100001.44;7731265;32;39959;-72
2022/07/16 01:00:32;;;;;;;2.60;1.55;;;;;;;19.32;37.25;100009.75;7711394;32;38367;-73
2022/07/16 01:04:48;;;;;;;9.63;2.00;;;;;;;19.34;37.52;100012.97;7711813;32;36723;-73
2022/07/16 01:09:05;;;;;;;4.82;1.58;;;;;;;19.18;38.05;100007.13;7735839;32;40123;-74
2022/07/16 01:13:22;;;;;;;8.10;1.85;;;;;;;19.13;38.31;100021.09;7738800;32;38117;-73
2022/07/16 01:17:39;;;;;;;2.92;1.75;;;;;;;19.07;38.53;100012.12;7723129;32;37364;-74
2022/07/16 01:21:55;;;;;;;2.72;1.83;;;;;;;19.20;38.33;100012.34;7710455;32;37059;-74
2022/07/16 01:26:11;;;;;;;4.30;2.00;;;;;;;18.87;39.34;100001.75;7728424;32;39985;-74
2022/07/16 01:30:27;;;;;;;3.58;2.03;;;;;;;19.06;38.82;100010.53;7737882;32;40205;-75
2022/07/16 01:34:44;;;;;;;4.45;1.70;;;;;;;18.99;38.97;100015.72;7728953;32;37755;-75
2022/07/16 01:39:00;;;;;;;5.20;2.00;;;;;;;18.97;39.00;100017.19;7728121;32;37689;-74
2022/07/16 01:43:18;;;;;;;1.90;1.48;;;;;;;18.97;39.18;100012.44;7736724;32;38982;-75
2022/07/16 01:47:34;;;;;;;3.00;1.60;;;;;;;18.55;40.03;100023.06;7738028;32;40469;-74
2022/07/16 01:51:51;;;;;;;18.45;2.30;;;;;;;18.56;40.67;100024.69;7728275;32;38536;-75
2022/07/16 01:56:07;;;;;;;6.18;2.58;;;;;;;18.42;42.55;100022.03;7711128;32;37197;-74
2022/07/16 02:00:24;;;;;;;3.12;1.70;;;;;;;18.19;44.20;100022.09;7711530;32;38326;-75
2022/07/16 02:04:41;;;;;;;3.50;1.75;;;;;;;18.12;44.89;100026.44;7737514;32;39666;-74
2022/07/16 02:08:58;;;;;;;3.50;1.80;;;;;;;18.14;44.23;100030.53;7748387;32;38717;-75
2022/07/16 02:13:14;;;;;;;2.50;1.73;;;;;;;18.25;43.34;100025.53;7737542;32;38061;-74
2022/07/16 02:17:30;;;;;;;2.90;1.70;;;;;;;18.06;43.53;100022.19;7737701;32;39105;-75
2022/07/16 02:21:46;;;;;;;3.53;1.95;;;;;;;17.89;43.49;100022.91;7737616;32;40592;-74
2022/07/16 02:26:02;;;;;;;3.03;1.90;;;;;;;18.17;42.42;100020.78;7737490;32;38535;-75
2022/07/16 02:30:18;;;;;;;5.07;2.00;;;;;;;18.01;42.99;100021.19;7737473;32;34903;-74
2022/07/16 02:34:34;;;;;;;2.95;1.70;;;;;;;18.11;43.08;100013.75;7736896;32;40205;-74
2022/07/16 02:38:50;;;;;;;3.58;2.12;;;;;;;18.08;43.68;100011.66;7737237;32;39867;-75
2022/07/16 02:43:08;;;;;;;5.60;2.10;;;;;;;17.84;44.63;100015.53;7737076;32;38014;-74
2022/07/16 02:47:24;;;;;;;5.97;1.98;;;;;;;18.21;43.27;100013.50;7736636;32;37576;-74
2022/07/16 02:51:40;;;;;;;4.07;1.92;;;;;;;17.82;44.00;100015.84;7726039;32;39248;-74
2022/07/16 02:55:56;;;;;;;4.37;1.92;;;;;;;17.84;43.42;100015.53;7711475;32;39608;-74
2022/07/16 03:00:13;;;;;;;3.37;2.20;;;;;;;17.73;43.35;100025.19;7710591;32;35888;-74
2022/07/16 03:04:29;;;;;;;3.45;1.90;;;;;;;17.80;43.00;100022.84;7728119;32;35368;-75
2022/07/16 03:08:46;;;;;;;4.15;2.10;;;;;;;17.61;43.14;100023.03;7722176;32;39420;-73
2022/07/16 03:13:02;;;;;;;7.25;2.10;;;;;;;17.55;43.34;100029.78;7711686;32;40698;-74
2022/07/16 03:17:18;;;;;;;2.25;1.75;;;;;;;17.64;43.01;100034.25;7713969;32;36803;-73
2022/07/16 03:21:35;;;;;;;3.80;2.20;;;;;;;17.65;43.15;100030.34;7732224;32;37784;-73
2022/07/16 03:25:52;;;;;;;5.70;2.00;;;;;;;17.68;43.11;100039.09;7734992;32;39997;-75
2022/07/16 03:30:08;;;;;;;4.93;2.35;;;;;;;17.88;44.26;100035.88;7729304;32;39999;-76
2022/07/16 03:34:24;;;;;;;7.32;2.35;;;;;;;17.85;44.13;100050.28;7721311;32;38038;-75
2022/07/16 03:43:15;;;;;;;3.03;2.00;;;;;;;18.33;42.86;100043.25;7738169;32;40029;-75
2022/07/16 03:47:31;;;;;;;19.12;4.47;;;;;;;18.38;43.01;100054.16;7726070;32;39949;-76
2022/07/16 03:51:47;;;;;;;11.00;2.28;;;;;;;18.67;43.61;100053.63;7733984;32;38716;-76
2022/07/16 03:56:04;;;;;;;8.00;2.40;;;;;;;18.76;42.38;100050.87;7730935;32;37109;-76
2022/07/16 04:00:20;;;;;;;7.15;2.20;;;;;;;19.06;42.48;100056.69;7718576;32;40027;-76
2022/07/16 04:04:36;;;;;;;2.62;1.73;;;;;;;19.25;42.11;100056.41;7720926;32;39417;-77
2022/07/16 04:08:52;;;;;;;4.03;1.98;;;;;;;19.04;41.35;100061.72;7706110;32;37927;-77
2022/07/16 04:13:08;;;;;;;7.20;2.30;;;;;;;18.84;40.30;100063.94;7725092;32;37029;-76
2022/07/16 04:17:25;;;;;;;2.83;1.80;;;;;;;18.96;40.30;100060.56;7730750;32;39006;-76
2022/07/16 04:21:41;;;;;;;2.65;1.75;;;;;;;18.98;40.32;100063.81;7731110;32;39894;-76
2022/07/16 04:25:57;;;;;;;5.82;2.12;;;;;;;18.77;40.34;100058.84;7749450;32;37922;-77
2022/07/16 04:30:14;;;;;;;4.40;1.90;;;;;;;18.73;40.33;100066.16;7736209;32;37092;-76
2022/07/16 04:34:30;;;;;;;4.93;2.00;;;;;;;18.73;40.75;100063.41;7717062;32;39176;-77
2022/07/16 04:38:46;;;;;;;4.35;1.80;;;;;;;18.66;41.06;100063.06;7736923;32;39671;-76
2022/07/16 04:43:02;;;;;;;5.90;1.98;;;;;;;18.71;42.03;100059.31;7717700;32;37653;-74
2022/07/16 04:47:18;;;;;;;4.22;1.98;;;;;;;18.79;42.11;100068.78;7710726;32;36796;-75
2022/07/16 04:51:34;;;;;;;4.47;2.20;;;;;;;18.68;42.44;100069.06;7728222;32;39136;-75
2022/07/16 04:55:50;;;;;;;4.20;1.90;;;;;;;18.72;43.36;100066.47;7722456;32;39854;-73
2022/07/16 05:00:07;;;;;;;4.50;2.10;;;;;;;18.16;44.09;100071.56;7713073;32;38451;-75
2022/07/16 05:04:23;;;;;;;2.58;1.80;;;;;;;18.54;42.72;100066.41;7738606;32;37325;-77
2022/07/16 05:08:40;;;;;;;4.18;1.98;;;;;;;18.67;41.97;100069.38;7725510;32;40203;-76
2022/07/16 05:12:57;;;;;;;3.67;1.95;;;;;;;18.93;41.85;100072.25;7711703;32;39662;-76
2022/07/16 05:17:13;;;;;;;6.22;2.28;;;;;;;19.30;41.33;100064.53;7712069;32;38871;-78
2022/07/16 05:21:29;;;;;;;3.55;2.03;;;;;;;19.36;41.22;100068.75;7736968;32;37256;-76
2022/07/16 05:25:45;;;;;;;3.50;1.90;;;;;;;19.34;40.84;100071.03;7716064;32;40232;-76
2022/07/16 05:30:03;;;;;;;8.70;2.33;;;;;;;19.14;40.97;100070.53;7723248;32;39980;-76
2022/07/16 05:34:25;;;;;;;;;;;;;;;18.83;42.01;100072.56;7721021;32;37906;-76
2022/07/16 05:38:40;;;;;;;4.60;2.10;;;;;;;19.27;40.88;100067.94;7711633;32;36910;-76
2022/07/16 05:42:56;;;;;;;8.13;1.67;;;;;;;19.85;40.35;100074.97;7734813;32;39375;-76
2022/07/16 05:47:12;;;;;;;4.85;2.03;;;;;;;19.96;39.93;100080.16;7737371;32;40028;-77
2022/07/16 05:51:29;;;;;;;3.80;1.83;;;;;;;20.16;39.64;100073.94;7731332;32;38844;-78
2022/07/16 05:55:44;;;;;;;2.85;1.80;;;;;;;20.16;38.83;100073.09;7726529;32;35592;-77
2022/07/16 06:00:08;;;;;;;6.43;1.80;;;;;;;20.08;39.08;100074.75;7721754;32;40136;-72
2022/07/16 06:04:24;;;;;;;6.12;1.77;;;;;;;20.23;37.71;100077.00;7711155;32;40626;-71
2022/07/16 06:08:40;;;;;;;2.92;1.60;;;;;;;19.65;39.15;100081.94;7710965;32;38523;-72
2022/07/16 06:12:57;;;;;;;3.35;1.60;;;;;;;20.18;38.79;100077.19;7711129;32;36710;-71
2022/07/16 06:17:13;;;;;;;5.78;1.73;;;;;;;19.88;38.30;100079.03;7711028;32;40148;-72
2022/07/16 06:21:29;;;;;;;3.78;1.52;;;;;;;20.33;38.75;100084.13;7710857;32;40769;-73
2022/07/16 06:25:45;;;;;;;2.47;1.70;;;;;;;20.34;37.88;100085.75;7710700;32;38699;-72
2022/07/16 06:30:05;;;;;;;4.32;1.83;;;;;;;20.31;38.17;100080.06;7709269;32;37379;-72
2022/07/16 06:34:21;;;;;;;6.47;1.95;;;;;;;20.76;37.93;100079.59;7710624;32;39327;-72
2022/07/16 06:38:37;;;;;;;7.45;2.30;;;;;;;20.87;37.61;100080.84;7710574;32;39911;-77
2022/07/16 06:42:53;;;;;;;2.67;1.90;;;;;;;20.52;38.80;100088.47;7710569;32;38908;-77
2022/07/16 06:47:09;;;;;;;5.15;1.87;;;;;;;20.78;38.75;100086.44;7710424;32;37201;-76
2022/07/16 06:51:26;;;;;;;4.15;2.05;;;;;;;21.09;38.42;100088.03;7710314;32;39473;-77
2022/07/16 06:55:42;;;;;;;2.33;1.60;;;;;;;20.99;38.13;100089.25;7710222;32;40711;-78
2022/07/16 06:59:59;;;;;;;3.72;1.58;;;;;;;21.52;37.35;100080.63;7711327;32;38003;-78
2022/07/16 07:04:15;;;;;;;2.95;1.37;;;;;;;22.05;35.53;100081.75;7713325;32;36984;-77
2022/07/16 07:08:31;;;;;;;2.95;1.70;;;;;;;21.94;36.33;100083.38;7713077;32;40103;-77
2022/07/16 07:12:47;;;;;;;4.20;1.80;;;;;;;21.71;37.08;100078.19;7713077;32;40711;-76
2022/07/16 07:17:04;;;;;;;7.57;1.95;;;;;;;22.10;37.84;100070.44;7712973;32;38708;-77
2022/07/16 07:21:21;;;;;;;5.47;1.73;;;;;;;22.14;36.07;100062.25;7712891;32;37094;-77
2022/07/16 07:25:37;;;;;;;3.58;1.80;;;;;;;22.54;34.99;100071.94;7713012;32;39439;-75
2022/07/16 07:29:57;;;;;;;2.70;1.45;;;;;;;22.39;35.11;100063.13;7712724;32;40086;-76
2022/07/16 07:34:13;;;;;;;5.28;1.67;;;;;;;23.23;32.11;100048.78;7712672;32;38080;-77
2022/07/16 07:38:29;;;;;;;5.00;1.75;;;;;;;23.62;29.22;100049.12;7712544;32;37200;-77
2022/07/16 07:42:45;;;;;;;2.80;1.40;;;;;;;23.39;29.85;100053.63;7712394;32;39323;-77
2022/07/16 07:47:01;;;;;;;3.67;1.48;;;;;;;23.61;29.42;100047.50;7712384;32;39993;-77
2022/07/16 07:51:18;;;;;;;4.25;1.75;;;;;;;23.50;30.14;100051.94;7712049;32;39338;-77
2022/07/16 07:55:34;;;;;;;3.10;1.50;;;;;;;22.68;30.42;100047.44;7712301;32;37112;-77
2022/07/16 07:59:50;;;;;;;3.95;1.50;;;;;;;23.24;30.31;100039.25;7712324;32;39939;-77
2022/07/16 08:04:06;;;;;;;4.07;1.35;;;;;;;23.71;28.68;100039.81;7712090;32;39740;-77
2022/07/16 08:08:22;;;;;;;4.47;1.75;;;;;;;23.88;28.14;100045.09;7712039;32;38825;-77
2022/07/16 08:12:39;;;;;;;2.40;1.40;;;;;;;24.00;27.73;100041.44;7712223;32;37238;-84
2022/07/16 08:16:59;;;;;;;8.45;1.40;;;;;;;23.81;27.93;100037.34;7712337;32;39403;-77
2022/07/16 08:21:15;;;;;;;3.22;1.55;;;;;;;23.74;28.34;100039.09;7712435;32;40007;-74
2022/07/16 08:25:46;;;;;;;3.03;1.40;;;;;;;24.35;27.69;100030.44;7712137;32;38743;-70
2022/07/16 08:30:03;;;;;;;5.22;1.60;;;;;;;24.31;27.27;100023.94;7711979;32;37097;-74
2022/07/16 08:34:22;;;;;;;3.15;1.50;;;;;;;24.54;28.05;100018.59;7712056;32;40038;-76
2022/07/16 08:38:39;;;;;;;2.85;1.45;;;;;;;24.08;26.71;100025.75;7712261;32;39995;-76
2022/07/16 08:42:55;;;;;;;4.90;1.80;;;;;;;24.70;26.27;100017.75;7712129;32;38794;-75
2022/07/16 08:47:12;;;;;;;5.12;1.20;;;;;;;25.45;24.73;100016.63;7712065;32;37722;-75
2022/07/16 08:51:33;;;;;;;2.85;1.67;;;;;;;25.78;24.26;100015.28;7711934;32;39157;-76
2022/07/16 08:55:52;;;;;;;3.17;1.35;;;;;;;26.42;22.75;100009.28;7711915;32;39852;-75
2022/07/16 09:00:11;;;;;;;1.48;1.15;;;;;;;26.21;22.88;100021.69;7711891;32;37754;-76
2022/07/16 09:04:27;;;;;;;2.53;1.20;;;;;;;26.26;22.43;100017.00;7711934;32;36998;-74
2022/07/16 09:08:43;;;;;;;4.65;1.58;;;;;;;26.70;22.46;100022.94;7711653;32;39304;-75
2022/07/16 09:12:59;;;;;;;5.40;1.42;;;;;;;26.84;21.39;100016.75;7711580;32;40762;-75
2022/07/16 09:17:15;;;;;;;6.15;1.27;;;;;;;27.26;21.79;100010.13;7711511;32;38710;-76
2022/07/16 09:21:32;;;;;;;3.83;1.62;;;;;;;27.48;21.51;100002.06;7711060;32;37345;-72
2022/07/16 09:25:57;;;;;;;4.90;1.40;;;;;;;27.65;21.30;100007.06;7711553;32;40024;-72
2022/07/16 09:30:23;;;;;;;3.05;1.37;;;;;;;27.64;20.88;100011.03;7711346;32;39914;-72
2022/07/16 09:34:39;;;;;;;2.33;1.60;;;;;;;27.93;22.50;100002.97;7722348;32;37889;-71
2022/07/16 09:38:55;;;;;;;3.55;1.27;;;;;;;27.21;21.32;100007.66;7711202;32;37032;-72
2022/07/16 09:43:14;;;;;;;7.62;2.10;;;;;;;28.15;20.98;99992.78;7711469;32;40056;-72
2022/07/16 09:47:31;;;;;;;5.47;1.60;;;;;;;27.83;20.78;99984.03;7711375;32;40573;-73
2022/07/16 09:51:47;;;;;;;5.05;1.40;;;;;;;27.99;21.34;99995.00;7711186;32;37901;-72
2022/07/16 09:56:09;;;;;;;2.47;1.62;;;;;;;28.23;20.72;99983.22;7711135;32;37127;-78
2022/07/16 10:00:25;;;;;;;3.35;1.42;;;;;;;27.17;21.88;99985.25;7711049;32;39455;-71
2022/07/16 10:04:41;;;;;;;3.50;1.60;;;;;;;26.92;22.03;99975.72;7711022;32;40806;-72
2022/07/16 10:08:58;;;;;;;4.10;1.87;;;;;;;26.75;22.56;99993.84;7710897;32;38046;-73
2022/07/16 10:13:15;;;;;;;3.42;1.52;;;;;;;27.57;21.82;99973.75;7710870;32;36838;-72
2022/07/16 10:17:34;;;;;;;4.05;1.40;;;;;;;28.18;21.08;99965.97;7710878;32;40085;-72
2022/07/16 10:22:20;;;;;;;4.93;1.33;;;;;;;28.25;21.35;99960.41;7710874;32;39667;-74
2022/07/16 10:26:36;;;;;;;1.85;1.37;;;;;;;28.94;19.87;99956.91;7710648;32;37934;-74
2022/07/16 10:31:12;;;;;;;4.55;1.60;;;;;;;28.31;20.88;99944.84;7710552;32;37731;-72
2022/07/16 10:35:40;;;;;;;1.55;1.30;;;;;;;29.09;19.23;99931.72;7710430;32;39387;-73
2022/07/16 10:40:10;;;;;;;4.43;1.48;;;;;;;28.37;21.48;99937.72;7710494;32;40720;-72
2022/07/16 10:44:48;;;;;;;4.05;1.55;;;;;;;29.29;20.57;99938.66;7710169;32;38006;-73
2022/07/16 10:49:07;;;;;;;6.97;1.40;;;;;;;28.63;20.62;99941.47;7710237;32;37277;-72
2022/07/16 10:53:23;;;;;;;3.00;1.60;;;;;;;28.59;21.15;99926.66;7710079;32;40110;-72
2022/07/16 10:57:43;;;;;;;1.73;1.50;;;;;;;29.33;21.24;99933.03;7709788;32;40322;-72
2022/07/16 11:02:02;;;;;;;3.42;1.45;;;;;;;28.63;20.45;99933.06;7710187;32;38673;-72
2022/07/16 11:06:22;;;;;;;4.55;1.87;;;;;;;27.89;21.44;99926.47;7710387;32;37031;-73
2022/07/16 11:10:39;;;;;;;2.92;1.62;;;;;;;27.71;22.69;99932.69;7735664;32;39387;-73
2022/07/16 11:14:59;;;;;;;3.05;1.73;;;;;;;27.89;21.92;99932.06;7724748;32;39955;-70
2022/07/16 11:19:15;;;;;;;4.15;1.40;;;;;;;27.71;22.16;99937.50;7717009;32;36952;-73
2022/07/16 11:23:46;;;;;;;3.87;1.65;;;;;;;28.05;23.24;99929.03;7719228;32;37039;-71
2022/07/16 11:28:03;;;;;;;2.03;1.50;;;;;;;28.43;21.26;99918.50;7722754;32;39360;-72
2022/07/16 11:32:19;;;;;;;3.22;1.45;;;;;;;28.80;20.71;99917.53;7708784;32;39831;-72
2022/07/16 11:36:40;;;;;;;4.68;1.60;;;;;;;29.12;20.53;99914.09;7708878;32;38322;-74
2022/07/16 11:40:56;;;;;;;1.73;1.30;;;;;;;28.26;21.27;99922.78;7717158;32;36979;-72
2022/07/16 11:45:12;;;;;;;8.32;1.75;;;;;;;29.08;21.70;99916.87;7715548;32;39542;-74
2022/07/16 11:49:31;;;;;;;4.82;2.00;;;;;;;29.25;20.96;99920.16;7712698;32;40008;-72
2022/07/16 11:53:55;;;;;;;5.82;1.55;;;;;;;29.65;20.85;99916.28;7712610;32;38817;-72
2022/07/16 11:58:17;;;;;;;3.87;1.77;;;;;;;29.48;20.62;99917.03;7712990;32;37168;-72
2022/07/16 12:02:45;;;;;;;4.15;1.35;;;;;;;29.55;21.07;99912.22;7734767;32;40106;-73
2022/07/16 12:07:04;;;;;;;3.17;1.55;;;;;;;29.90;20.28;99905.06;7726292;32;39627;-71
2022/07/16 12:11:27;;;;;;;4.70;2.03;;;;;;;29.03;22.03;99914.47;7711131;32;36846;-74
2022/07/16 12:15:58;;;;;;;4.22;1.70;;;;;;;28.90;21.59;99916.78;7712462;32;38056;-73
2022/07/16 12:20:26;;;;;;;5.95;1.90;;;;;;;29.25;21.87;99920.16;7712292;32;40205;-74
2022/07/16 12:24:48;;;;;;;5.72;1.60;;;;;;;29.47;20.97;99916.22;7712160;32;41360;-73
2022/07/16 12:29:06;;;;;;;4.78;1.80;;;;;;;29.31;21.02;99912.97;7712020;32;38733;-78
2022/07/16 12:33:27;;;;;;;3.87;1.70;;;;;;;29.54;20.57;99910.63;7737986;32;37865;-77
2022/07/16 12:37:43;;;;;;;3.72;1.62;;;;;;;29.39;21.02;99921.03;7738962;32;40161;-79
2022/07/16 12:41:59;;;;;;;3.20;1.50;;;;;;;29.78;21.74;99913.91;7738835;32;39984;-80
2022/07/16 12:46:16;;;;;;;2.72;1.52;;;;;;;29.90;20.70;99910.69;7738652;32;38540;-81
2022/07/16 12:50:32;;;;;;;7.28;2.00;;;;;;;29.76;21.00;99908.66;7738590;32;37924;-74
2022/07/16 12:59:24;;;;;;;3.45;1.52;;;;;;;30.95;19.05;99908.56;7736721;32;41223;-71
2022/07/16 13:03:41;;;;;;;3.03;1.55;;;;;;;30.44;20.50;99912.69;7738784;32;37950;-73
2022/07/16 13:07:59;;;;;;;7.87;1.92;;;;;;;29.84;20.20;99909.50;7738574;32;36853;-72
2022/07/16 13:12:15;;;;;;;4.75;1.75;;;;;;;30.59;19.41;99899.41;7738429;32;40174;-73
2022/07/16 13:16:32;;;;;;;2.87;1.30;;;;;;;29.65;21.20;99909.81;7730569;32;40758;-74
2022/07/16 13:20:47;;;;;;;3.85;1.95;;;;;;;29.72;19.85;99907.06;7701675;32;223749;-71
2022/07/16 13:25:04;;;;;;;2.95;1.98;;;;;;;29.76;21.15;99903.06;7708548;32;37936;-71
2022/07/16 13:29:21;;;;;;;2.87;1.60;;;;;;;30.15;20.45;99918.34;7709218;32;39292;-74
2022/07/16 13:33:37;;;;;;;3.55;1.58;;;;;;;30.09;18.99;99911.50;7711519;32;40055;-71
2022/07/16 13:37:53;;;;;;;3.80;1.50;;;;;;;30.30;18.80;99913.50;7711390;32;38542;-72
2022/07/16 13:42:09;;;;;;;3.62;1.50;;;;;;;30.11;19.18;99915.53;7720926;32;38048;-70
2022/07/16 13:46:25;;;;;;;4.25;1.45;;;;;;;30.02;19.37;99914.31;7709919;32;39469;-71
2022/07/16 13:50:42;;;;;;;4.15;1.60;;;;;;;29.70;19.47;99912.25;7722012;32;40880;-72
2022/07/16 13:54:58;;;;;;;5.37;1.50;;;;;;;28.66;21.32;99901.44;7709756;32;38413;-71
2022/07/16 13:59:14;;;;;;;7.10;1.52;;;;;;;29.51;19.64;99900.19;7709804;32;37097;-72
2022/07/16 14:03:31;;;;;;;2.95;1.77;;;;;;;29.58;20.91;99902.22;7706551;32;40088;-71
2022/07/16 14:07:48;;;;;;;7.15;1.67;;;;;;;29.77;20.39;99889.84;7705877;32;40763;-73
2022/07/16 14:12:04;;;;;;;10.27;2.00;;;;;;;29.75;19.93;99893.00;7707805;32;37440;-72
2022/07/16 14:16:20;;;;;;;4.35;1.60;;;;;;;29.89;19.83;99892.25;7713932;32;37529;-72
2022/07/16 14:20:39;;;;;;;3.78;1.52;;;;;;;29.21;20.14;99897.72;7728164;32;39309;-71
2022/07/16 14:24:55;;;;;;;4.18;1.50;;;;;;;29.57;20.99;99887.34;7733831;32;39956;-70
2022/07/16 14:29:11;;;;;;;3.12;1.67;;;;;;;29.65;20.93;99882.56;7737352;32;38857;-71
2022/07/16 14:33:27;;;;;;;4.10;2.10;;;;;;;29.74;21.10;99873.75;7713214;32;37200;-70
2022/07/16 14:37:45;;;;;;;3.37;1.30;;;;;;;29.87;19.36;99872.19;7710752;32;40175;-70
2022/07/16 14:42:01;;;;;;;7.22;1.70;;;;;;;29.00;21.75;99871.16;7710529;32;40676;-71
2022/07/16 14:46:18;;;;;;;3.45;1.60;;;;;;;29.39;21.46;99866.88;7710371;32;38568;-73
2022/07/16 14:50:34;;;;;;;4.12;1.60;;;;;;;29.62;21.13;99860.09;7715757;32;37778;-72
2022/07/16 14:54:51;;;;;;;3.35;1.67;;;;;;;30.25;19.51;99852.88;7710242;32;40154;-70
2022/07/16 14:59:07;;;;;;;3.00;1.50;;;;;;;30.48;18.88;99857.25;7710143;32;39963;-71
2022/07/16 15:03:23;;;;;;;2.33;1.58;;;;;;;30.86;19.67;99843.44;7721405;32;38813;-72
2022/07/16 15:07:41;;;;;;;2.67;1.58;;;;;;;31.10;18.69;99847.38;7710075;32;37395;-73
2022/07/16 15:11:57;;;;;;;2.40;1.48;;;;;;;31.58;17.81;99846.69;7709777;32;40354;-73
2022/07/16 15:16:15;;;;;;;5.65;1.80;;;;;;;30.59;20.12;99855.19;7709802;32;40815;-74
2022/07/16 15:20:34;;;;;;;5.05;1.83;;;;;;;30.65;19.72;99847.94;7710455;32;38437;-72
2022/07/16 15:24:50;;;;;;;3.40;1.73;;;;;;;30.10;19.79;99856.91;7713192;32;37704;-73
2022/07/16 15:29:06;;;;;;;2.53;1.70;;;;;;;31.14;19.28;99850.16;7712853;32;40177;-74
2022/07/16 15:33:39;;;;;;;2.70;1.52;;;;;;;31.26;18.58;99850.47;7713314;32;38132;-74
2022/07/16 15:38:05;;;;;;;3.33;1.62;;;;;;;31.86;18.44;99844.03;7712813;32;38701;-73
2022/07/16 15:42:21;;;;;;;2.20;1.50;;;;;;;32.21;17.95;99842.13;7724298;32;37814;-74
2022/07/16 15:46:38;;;;;;;2.78;1.70;;;;;;;32.14;18.17;99843.78;7712696;32;40261;-73
2022/07/16 15:50:54;;;;;;;4.20;1.70;;;;;;;32.79;16.79;99837.47;7713107;32;40590;-75
2022/07/16 15:55:10;;;;;;;2.90;1.67;;;;;;;32.35;16.38;99839.94;7721292;32;37890;-74
2022/07/16 15:59:27;;;;;;;4.30;1.60;;;;;;;31.57;16.43;99849.91;7712193;32;36806;-73
2022/07/16 16:03:43;;;;;;;4.70;1.80;;;;;;;31.00;17.31;99845.41;7726167;32;39352;-75
2022/07/16 16:07:59;;;;;;;8.55;1.70;;;;;;;30.24;18.38;99861.69;7724453;32;40812;-75
2022/07/16 16:12:15;;;;;;;3.10;2.03;;;;;;;29.59;18.76;99859.66;7712387;32;38662;-75
2022/07/16 16:16:32;;;;;;;3.87;1.92;;;;;;;29.59;19.20;99859.66;7712529;32;37803;-75
2022/07/16 16:20:49;;;;;;;4.82;1.77;;;;;;;30.36;18.90;99857.69;7718951;32;39300;-75
2022/07/16 16:25:06;;;;;;;5.55;2.17;;;;;;;30.56;18.86;99856.00;7712352;32;40730;-74
2022/07/16 16:29:23;;;;;;;4.95;1.60;;;;;;;29.95;19.26;99858.91;7712902;32;38184;-73
2022/07/16 16:33:39;;;;;;;6.65;2.00;;;;;;;30.34;19.36;99861.66;7711763;32;37201;-75
2022/07/16 16:37:57;;;;;;;3.62;1.80;;;;;;;30.03;19.19;99866.13;7735337;32;39276;-74
2022/07/16 16:42:13;;;;;;;9.70;1.87;;;;;;;29.73;19.60;99863.69;7735706;32;40225;-74
2022/07/16 16:46:29;;;;;;;5.72;2.03;;;;;;;30.05;19.45;99868.56;7714918;32;37919;-73
2022/07/16 16:50:45;;;;;;;8.98;3.47;;;;;;;29.57;19.01;99864.87;7724172;32;38365;-73
2022/07/16 16:55:01;;;;;;;6.35;2.70;;;;;;;29.27;19.05;99861.63;7727177;32;39260;-72
2022/07/16 16:59:17;;;;;;;5.97;3.55;;;;;;;28.95;19.09;99873.53;7711735;32;40811;-73
2022/07/16 17:03:33;;;;;;;1.83;1.70;;;;;;;28.87;19.24;99878.31;7724353;32;37812;-75
2022/07/16 17:07:50;;;;;;;5.85;2.15;;;;;;;28.45;19.78;99879.66;7711456;32;38330;-74
2022/07/16 17:12:06;;;;;;;2.95;2.40;;;;;;;28.62;19.47;99878.19;7711449;32;39452;-75
2022/07/16 17:16:22;;;;;;;8.55;2.85;;;;;;;28.36;19.44;99876.41;7730553;32;39662;-74
2022/07/16 17:20:38;;;;;;;3.33;2.00;;;;;;;28.71;19.64;99873.03;7738251;32;38344;-75
2022/07/16 17:24:54;;;;;;;5.12;1.58;;;;;;;28.84;19.33;99879.09;7728964;32;36772;-73
2022/07/16 17:29:10;;;;;;;4.10;1.90;;;;;;;28.78;19.46;99877.88;7711153;32;39306;-74
2022/07/16 17:33:26;;;;;;;3.03;1.67;;;;;;;28.73;19.02;99890.25;7710885;32;39878;-71
2022/07/16 17:37:42;;;;;;;5.50;2.12;;;;;;;28.68;18.69;99892.66;7710993;32;38751;-73
2022/07/16 17:41:58;;;;;;;9.15;1.62;;;;;;;28.36;19.41;99907.25;7710957;32;37118;-73
2022/07/16 17:46:16;;;;;;;5.70;1.50;;;;;;;28.40;18.96;99911.66;7716800;32;40152;-74
2022/07/16 17:50:32;;;;;;;4.25;1.60;;;;;;;28.22;19.18;99911.56;7733557;32;41232;-73
2022/07/16 17:54:51;;;;;;;4.10;1.52;;;;;;;28.20;19.21;99908.34;7713538;32;37895;-72
2022/07/16 17:59:07;;;;;;;3.70;1.40;;;;;;;27.68;19.90;99922.28;7710985;32;36797;-72
2022/07/16 18:03:23;;;;;;;7.12;2.53;;;;;;;27.34;19.79;99924.31;7712792;32;40035;-72
2022/07/16 18:07:41;;;;;;;5.03;3.05;;;;;;;27.17;20.26;99926.47;7723926;32;38743;-73
2022/07/16 18:11:57;;;;;;;4.47;2.00;;;;;;;27.51;19.76;99929.31;7735423;32;37949;-73
2022/07/16 18:16:13;;;;;;;6.12;1.40;;;;;;;27.40;20.09;99936.75;7736325;32;37896;-73
2022/07/16 18:20:29;;;;;;;2.75;1.50;;;;;;;27.35;20.47;99940.72;7737865;32;39413;-73
2022/07/16 18:24:46;;;;;;;2.87;2.30;;;;;;;26.94;20.56;99948.16;7737741;32;40600;-73
2022/07/16 18:29:04;;;;;;;37.83;7.40;;;;;;;26.84;20.84;99957.19;7737428;32;38536;-74
2022/07/16 18:33:20;;;;;;;9.68;4.47;;;;;;;26.61;21.24;99972.84;7737467;32;37426;-74
2022/07/16 18:37:38;;;;;;;5.65;2.35;;;;;;;26.51;21.64;99976.28;7737496;32;39426;-74
2022/07/16 18:41:54;;;;;;;3.05;1.95;;;;;;;26.40;22.61;99984.50;7723514;32;40028;-73
2022/07/16 18:46:10;;;;;;;5.90;2.40;;;;;;;26.32;22.44;99991.16;7713363;32;38065;-76
2022/07/16 18:50:27;;;;;;;4.70;2.20;;;;;;;26.31;22.91;99997.91;7724655;32;37157;-73
2022/07/16 18:54:43;;;;;;;3.65;1.90;;;;;;;26.19;23.10;100001.72;7718216;32;39319;-72
2022/07/16 18:59:00;;;;;;;4.55;1.77;;;;;;;26.24;23.10;100004.19;7710066;32;40000;-74
2022/07/16 19:03:24;;;;;;;5.25;1.70;;;;;;;26.45;22.67;100008.53;7709951;32;38839;-74
2022/07/16 19:07:40;;;;;;;2.37;1.30;;;;;;;26.15;23.40;100014.03;7716665;32;37372;-73
2022/07/16 19:11:57;;;;;;;5.43;1.45;;;;;;;26.14;23.14;100013.19;7727436;32;40128;-75
2022/07/16 19:16:14;;;;;;;1.67;1.40;;;;;;;25.82;23.58;100026.56;7723551;32;41338;-74
2022/07/16 19:20:30;;;;;;;2.05;1.50;;;;;;;25.56;23.82;100035.59;7736174;32;37718;-72
2022/07/16 19:24:46;;;;;;;7.10;1.80;;;;;;;25.63;23.88;100044.94;7722416;32;37406;-73
2022/07/16 19:29:03;;;;;;;6.97;1.50;;;;;;;25.74;23.32;100059.09;7709128;32;39366;-72
2022/07/16 19:33:23;;;;;;;3.55;1.60;;;;;;;25.73;23.06;100079.00;7710755;32;40074;-71
2022/07/16 19:37:44;;;;;;;4.03;1.20;;;;;;;25.75;22.79;100073.88;7733604;32;38119;-72
2022/07/16 19:42:01;;;;;;;3.53;1.52;;;;;;;25.38;23.38;100083.47;7729753;32;37110;-73
2022/07/16 19:46:17;;;;;;;3.87;1.60;;;;;;;25.70;23.03;100091.75;7714726;32;39361;-72
2022/07/16 19:50:34;;;;;;;4.65;1.17;;;;;;;25.93;22.51;100100.16;7734928;32;39902;-72
2022/07/16 19:58:00;;;;;;;6.03;1.37;;;;;;;25.83;22.54;100101.56;7707606;32;38786;-73
2022/07/16 19:59:27;;;;;;;2.50;1.10;;;;;;;25.54;22.85;100110.50;7708365;32;37890;-74
2022/07/16 20:03:43;;;;;;;2.47;1.30;;;;;;;25.34;23.18;100121.66;7713326;32;39484;-80
2022/07/16 20:08:09;;;;;;;3.28;1.02;;;;;;;25.44;23.45;100123.88;7718497;32;39881;-73
2022/07/16 20:12:26;;;;;;;1.85;1.00;;;;;;;25.43;23.10;100127.84;7737270;32;38059;-72
2022/07/16 20:16:43;;;;;;;3.15;1.40;;;;;;;25.08;23.30;100134.19;7739318;32;36714;-72